createdAt,value
2023-05-09T00:00:25.127Z,12.6
2023-05-09T00:01:26.355Z,12.6
2023-05-09T00:02:29.815Z,12.6
2023-05-09T00:03:31.572Z,12.6
2023-05-09T00:04:32.838Z,12.6
2023-05-09T00:05:34.206Z,12.5
2023-05-09T00:06:35.485Z,12.5
2023-05-09T00:07:44.211Z,12.5
2023-05-09T00:08:45.436Z,12.5
2023-05-09T00:09:46.609Z,12.5
2023-05-09T00:10:47.772Z,12.5
2023-05-09T00:11:48.950Z,12.4
2023-05-09T00:12:50.194Z,12.4
2023-05-09T00:13:57.425Z,12.4
2023-05-09T00:15:01.544Z,12.4
2023-05-09T00:16:02.760Z,12.4
2023-05-09T00:17:04.217Z,12.4
2023-05-09T00:18:05.784Z,12.4
2023-05-09T00:19:12.200Z,12.4
2023-05-09T00:20:18.617Z,12.3
2023-05-09T00:21:22.555Z,12.3
2023-05-09T00:22:31.004Z,12.3
2023-05-09T00:23:34.458Z,12.3
2023-05-09T00:24:38.095Z,12.3
2023-05-09T00:25:47.029Z,12.2
2023-05-09T00:26:53.512Z,12.2
2023-05-09T00:27:54.665Z,12.2
2023-05-09T00:28:58.560Z,12.2
2023-05-09T00:29:59.873Z,12.2
2023-05-09T00:31:01.217Z,12.2
2023-05-09T00:32:02.456Z,12.2
2023-05-09T00:33:06.135Z,12.2
2023-05-09T00:34:07.463Z,12.1
2023-05-09T00:35:13.806Z,12.1
2023-05-09T00:36:18.785Z,12.1
2023-05-09T00:37:19.907Z,12.1
2023-05-09T00:38:21.151Z,12.1
2023-05-09T00:39:22.313Z,12.1
2023-05-09T00:40:26.439Z,12.1
2023-05-09T00:41:30.271Z,12
2023-05-09T00:42:34.061Z,12
2023-05-09T00:43:37.514Z,12
2023-05-09T00:44:43.751Z,12
2023-05-09T00:45:45.072Z,12
2023-05-09T00:46:50.115Z,12
2023-05-09T00:47:51.263Z,12
2023-05-09T00:48:52.603Z,12
2023-05-09T00:49:56.130Z,11.9
2023-05-09T00:50:57.273Z,11.9
2023-05-09T00:51:58.442Z,11.9
2023-05-09T00:53:08.511Z,11.9
2023-05-09T00:54:11.885Z,11.9
2023-05-09T00:55:20.727Z,11.9
2023-05-09T00:56:21.911Z,11.9
2023-05-09T00:57:25.655Z,11.9
2023-05-09T00:58:26.808Z,11.8
2023-05-09T00:59:28.067Z,11.8
2023-05-09T01:00:29.323Z,11.8
2023-05-09T01:01:30.681Z,11.8
2023-05-09T01:02:35.220Z,11.8
2023-05-09T01:03:36.572Z,11.8
2023-05-09T01:04:38.804Z,11.8
2023-05-09T01:05:39.949Z,11.8
2023-05-09T01:06:44.155Z,11.8
2023-05-09T01:07:45.349Z,11.7
2023-05-09T01:08:46.587Z,11.7
2023-05-09T01:09:50.678Z,11.7
2023-05-09T01:10:54.727Z,11.7
2023-05-09T01:11:55.911Z,11.7
2023-05-09T01:12:57.066Z,11.7
2023-05-09T01:14:03.481Z,11.7
2023-05-09T01:15:04.747Z,11.6
2023-05-09T01:16:08.883Z,11.6
2023-05-09T01:17:10.438Z,11.6
2023-05-09T01:18:11.740Z,11.6
2023-05-09T01:19:15.619Z,11.6
2023-05-09T01:20:16.791Z,11.6
2023-05-09T01:21:17.974Z,11.6
2023-05-09T01:22:19.166Z,11.5
2023-05-09T01:23:22.749Z,11.5
2023-05-09T01:24:23.906Z,11.5
2023-05-09T01:25:25.820Z,11.5
2023-05-09T01:26:29.861Z,11.5
2023-05-09T01:27:33.490Z,11.5
2023-05-09T01:28:37.469Z,11.4
2023-05-09T01:29:38.653Z,11.4
2023-05-09T01:30:40.159Z,11.4
2023-05-09T01:31:41.591Z,11.4
2023-05-09T01:32:43.719Z,11.4
2023-05-09T01:33:45.524Z,11.4
2023-05-09T01:34:48.695Z,11.4
2023-05-09T01:35:52.700Z,11.4
2023-05-09T01:36:53.959Z,11.3
2023-05-09T01:37:55.087Z,11.3
2023-05-09T01:38:59.293Z,11.3
2023-05-09T01:40:02.958Z,11.3
2023-05-09T01:41:06.503Z,11.3
2023-05-09T01:42:07.700Z,11.3
2023-05-09T01:43:08.858Z,11.3
2023-05-09T01:44:10.158Z,11.2
2023-05-09T01:45:17.106Z,11.2
2023-05-09T01:46:18.788Z,11.2
2023-05-09T01:47:20.372Z,11.2
2023-05-09T01:48:24.641Z,11.2
2023-05-09T01:49:28.390Z,11.2
2023-05-09T01:50:29.533Z,11.2
2023-05-09T01:51:30.765Z,11.1
2023-05-09T01:52:31.916Z,11.1
2023-05-09T01:53:33.125Z,11.1
2023-05-09T01:54:36.896Z,11.1
2023-05-09T01:55:38.064Z,11.1
2023-05-09T01:56:39.284Z,11.1
2023-05-09T01:57:43.112Z,11.1
2023-05-09T01:58:44.297Z,11
2023-05-09T01:59:45.453Z,11
2023-05-09T02:00:49.601Z,11
2023-05-09T02:01:50.884Z,11
2023-05-09T02:02:58.266Z,11
2023-05-09T02:04:05.731Z,11
2023-05-09T02:05:09.189Z,11
2023-05-09T02:06:10.351Z,10.9
2023-05-09T02:07:11.541Z,10.9
2023-05-09T02:08:18.164Z,10.9
2023-05-09T02:09:19.334Z,10.9
2023-05-09T02:10:20.512Z,10.9
2023-05-09T02:11:21.707Z,10.9
2023-05-09T02:12:22.947Z,10.9
2023-05-09T02:13:24.164Z,10.8
2023-05-09T02:14:25.621Z,10.8
2023-05-09T02:15:26.806Z,10.8
2023-05-09T02:16:28.036Z,10.8
2023-05-09T02:17:29.227Z,10.8
2023-05-09T02:18:33.784Z,10.8
2023-05-09T02:19:37.496Z,10.8
2023-05-09T02:20:38.954Z,10.8
2023-05-09T02:21:51.768Z,10.7
2023-05-09T02:22:52.941Z,10.7
2023-05-09T02:23:54.169Z,10.7
2023-05-09T02:24:55.365Z,10.7
2023-05-09T02:26:07.999Z,10.7
2023-05-09T02:27:11.900Z,10.7
2023-05-09T02:28:29.685Z,10.7
2023-05-09T02:29:32.971Z,10.6
2023-05-09T02:30:39.369Z,10.6
2023-05-09T02:31:40.565Z,10.6
2023-05-09T02:32:52.237Z,10.6
2023-05-09T02:33:56.531Z,10.6
2023-05-09T02:35:00.583Z,10.6
2023-05-09T02:36:01.879Z,10.5
2023-05-09T02:37:03.074Z,10.5
2023-05-09T02:38:04.349Z,10.5
2023-05-09T02:39:10.646Z,10.5
2023-05-09T02:40:11.946Z,10.5
2023-05-09T02:41:13.116Z,10.5
2023-05-09T02:42:16.463Z,10.5
2023-05-09T02:43:17.640Z,10.4
2023-05-09T02:44:18.789Z,10.4
2023-05-09T02:45:19.963Z,10.4
2023-05-09T02:46:26.430Z,10.4
2023-05-09T02:47:30.884Z,10.4
2023-05-09T02:48:41.044Z,10.3
2023-05-09T02:49:48.031Z,10.3
2023-05-09T02:50:49.317Z,10.3
2023-05-09T02:51:53.620Z,10.3
2023-05-09T02:53:00.891Z,10.3
2023-05-09T02:54:02.154Z,10.3
2023-05-09T02:55:03.302Z,10.3
2023-05-09T02:56:07.558Z,10.3
2023-05-09T02:57:08.742Z,10.2
2023-05-09T02:58:14.515Z,10.2
2023-05-09T02:59:19.015Z,10.2
2023-05-09T03:00:20.181Z,10.2
2023-05-09T03:01:21.345Z,10.2
2023-05-09T03:02:22.765Z,10.1
2023-05-09T03:03:24.404Z,10.1
2023-05-09T03:04:34.595Z,10.1
2023-05-09T03:05:38.583Z,10.1
2023-05-09T03:06:48.036Z,10.1
2023-05-09T03:07:52.418Z,10.1
2023-05-09T03:09:01.220Z,10.1
2023-05-09T03:10:04.577Z,10.1
2023-05-09T03:11:08.258Z,10
2023-05-09T03:12:09.400Z,10
2023-05-09T03:13:15.948Z,10
2023-05-09T03:14:23.035Z,10
2023-05-09T03:15:37.508Z,10
2023-05-09T03:16:43.851Z,10
2023-05-09T03:17:45.071Z,10
2023-05-09T03:18:51.574Z,10
2023-05-09T03:19:55.607Z,9.9
2023-05-09T03:21:05.137Z,9.9
2023-05-09T03:22:08.730Z,9.9
2023-05-09T03:23:31.255Z,9.9
2023-05-09T03:24:35.144Z,9.9
2023-05-09T03:25:39.278Z,9.9
2023-05-09T03:26:44.630Z,9.9
2023-05-09T03:27:51.212Z,9.8
2023-05-09T03:28:52.397Z,9.8
2023-05-09T03:29:56.181Z,9.8
2023-05-09T03:30:57.349Z,9.8
2023-05-09T03:31:58.528Z,9.8
2023-05-09T03:33:02.764Z,9.8
2023-05-09T03:34:04.030Z,9.8
2023-05-09T03:35:12.418Z,9.8
2023-05-09T03:36:20.369Z,9.8
2023-05-09T03:37:27.523Z,9.7
2023-05-09T03:38:38.239Z,9.7
2023-05-09T03:39:42.375Z,9.7
2023-05-09T03:41:28.591Z,9.7
2023-05-09T03:42:42.873Z,9.7
2023-05-09T03:43:52.062Z,9.7
2023-05-09T03:44:53.216Z,9.7
2023-05-09T03:45:54.373Z,9.7
2023-05-09T03:46:55.619Z,9.7
2023-05-09T03:47:59.651Z,9.7
2023-05-09T03:49:00.939Z,9.6
2023-05-09T03:50:02.093Z,9.6
2023-05-09T03:51:03.251Z,9.6
2023-05-09T03:52:04.515Z,9.6
2023-05-09T03:53:05.813Z,9.6
2023-05-09T03:54:07.162Z,9.6
2023-05-09T03:55:08.326Z,9.6
2023-05-09T03:56:09.493Z,9.6
2023-05-09T03:57:10.672Z,9.6
2023-05-09T03:58:11.911Z,9.6
2023-05-09T03:59:13.041Z,9.6
2023-05-09T04:00:14.221Z,9.6
2023-05-09T04:01:15.452Z,9.6
2023-05-09T04:02:16.636Z,9.5
2023-05-09T04:03:17.899Z,9.5
2023-05-09T04:04:19.301Z,9.5
2023-05-09T04:05:20.469Z,9.5
2023-05-09T04:06:21.638Z,9.5
2023-05-09T04:07:22.883Z,9.5
2023-05-09T04:08:24.185Z,9.5
2023-05-09T04:09:25.396Z,9.5
2023-05-09T04:10:26.558Z,9.5
2023-05-09T04:11:27.721Z,9.5
2023-05-09T04:12:28.890Z,9.5
2023-05-09T04:13:30.179Z,9.5
2023-05-09T04:14:31.641Z,9.5
2023-05-09T04:15:32.809Z,9.5
2023-05-09T04:16:33.996Z,9.5
2023-05-09T04:17:35.319Z,9.5
2023-05-09T04:18:36.693Z,9.5
2023-05-09T04:19:37.848Z,9.5
2023-05-09T04:20:39.026Z,9.5
2023-05-09T04:21:40.201Z,9.5
2023-05-09T04:22:41.459Z,9.5
2023-05-09T04:23:43.338Z,9.5
2023-05-09T04:24:44.554Z,9.5
2023-05-09T04:25:45.715Z,9.5
2023-05-09T04:26:46.883Z,9.5
2023-05-09T04:27:48.058Z,9.5
2023-05-09T04:28:49.238Z,9.5
2023-05-09T04:29:50.378Z,9.5
2023-05-09T04:30:51.681Z,9.5
2023-05-09T04:31:56.056Z,9.5
2023-05-09T04:32:57.725Z,9.5
2023-05-09T04:33:58.930Z,9.5
2023-05-09T04:35:00.111Z,9.5
2023-05-09T04:36:01.275Z,9.5
2023-05-09T04:37:02.462Z,9.5
2023-05-09T04:38:03.689Z,9.5
2023-05-09T04:39:04.986Z,9.5
2023-05-09T04:40:06.198Z,9.5
2023-05-09T04:41:07.369Z,9.5
2023-05-09T04:42:08.536Z,9.5
2023-05-09T04:43:09.700Z,9.5
2023-05-09T04:44:10.899Z,9.5
2023-05-09T04:45:12.119Z,9.5
2023-05-09T04:46:14.439Z,9.6
2023-05-09T04:47:15.691Z,9.5
2023-05-09T04:48:16.872Z,9.6
2023-05-09T04:49:18.032Z,9.6
2023-05-09T04:50:19.184Z,9.6
2023-05-09T04:51:20.345Z,9.6
2023-05-09T04:52:21.516Z,9.6
2023-05-09T04:53:22.767Z,9.6
2023-05-09T04:54:24.077Z,9.6
2023-05-09T04:55:25.289Z,9.6
2023-05-09T04:56:26.457Z,9.6
2023-05-09T04:57:27.620Z,9.6
2023-05-09T04:58:28.801Z,9.6
2023-05-09T04:59:30.329Z,9.6
2023-05-09T05:00:34.453Z,9.6
2023-05-09T05:01:35.611Z,9.6
2023-05-09T05:02:36.792Z,9.7
2023-05-09T05:03:37.998Z,9.7
2023-05-09T05:04:39.208Z,9.7
2023-05-09T05:05:40.505Z,9.7
2023-05-09T05:06:41.844Z,9.7
2023-05-09T05:07:43.005Z,9.7
2023-05-09T05:08:44.275Z,9.7
2023-05-09T05:09:45.658Z,9.7
2023-05-09T05:10:46.935Z,9.7
2023-05-09T05:11:58.731Z,9.8
2023-05-09T05:13:07.156Z,9.8
2023-05-09T05:14:08.556Z,9.8
2023-05-09T05:15:09.712Z,9.8
2023-05-09T05:16:10.883Z,9.8
2023-05-09T05:17:12.089Z,9.8
2023-05-09T05:18:13.227Z,9.8
2023-05-09T05:19:14.402Z,9.8
2023-05-09T05:20:15.569Z,9.9
2023-05-09T05:21:16.890Z,9.9
2023-05-09T05:22:18.032Z,9.9
2023-05-09T05:23:19.193Z,9.9
2023-05-09T05:24:20.472Z,9.9
2023-05-09T05:25:21.756Z,9.9
2023-05-09T05:26:23.116Z,9.9
2023-05-09T05:27:24.285Z,9.9
2023-05-09T05:28:25.450Z,10
2023-05-09T05:29:26.620Z,10
2023-05-09T05:30:27.781Z,10
2023-05-09T05:31:29.041Z,10
2023-05-09T05:32:30.262Z,10
2023-05-09T05:33:31.426Z,10
2023-05-09T05:34:32.601Z,10
2023-05-09T05:35:33.876Z,10
2023-05-09T05:36:35.042Z,10.1
2023-05-09T05:37:36.212Z,10.1
2023-05-09T05:38:37.381Z,10.1
2023-05-09T05:39:38.650Z,10.1
2023-05-09T05:40:39.973Z,10.1
2023-05-09T05:41:41.275Z,10.1
2023-05-09T05:42:42.438Z,10.1
2023-05-09T05:43:43.607Z,10.2
2023-05-09T05:44:44.877Z,10.2
2023-05-09T05:45:46.028Z,10.2
2023-05-09T05:46:47.214Z,10.2
2023-05-09T05:47:48.428Z,10.2
2023-05-09T05:48:51.377Z,10.2
2023-05-09T05:49:52.565Z,10.3
2023-05-09T05:50:53.708Z,10.3
2023-05-09T05:51:54.912Z,10.3
2023-05-09T05:52:56.141Z,10.3
2023-05-09T05:53:57.289Z,10.3
2023-05-09T05:54:58.597Z,10.3
2023-05-09T05:55:59.868Z,10.4
2023-05-09T05:57:01.265Z,10.4
2023-05-09T05:58:02.395Z,10.4
2023-05-09T05:59:03.574Z,10.4
2023-05-09T06:00:04.744Z,10.4
2023-05-09T06:01:05.894Z,10.5
2023-05-09T06:02:07.139Z,10.5
2023-05-09T06:03:08.346Z,10.5
2023-05-09T06:04:10.031Z,10.5
2023-05-09T06:05:11.435Z,10.5
2023-05-09T06:06:13.003Z,10.6
2023-05-09T06:07:14.167Z,10.6
2023-05-09T06:08:15.336Z,10.6
2023-05-09T06:09:16.517Z,10.6
2023-05-09T06:10:17.801Z,10.6
2023-05-09T06:11:19.089Z,10.7
2023-05-09T06:12:20.218Z,10.7
2023-05-09T06:13:21.475Z,10.7
2023-05-09T06:14:23.216Z,10.7
2023-05-09T06:15:24.376Z,10.8
2023-05-09T06:16:25.562Z,10.8
2023-05-09T06:17:26.736Z,10.8
2023-05-09T06:18:27.966Z,10.8
2023-05-09T06:19:29.158Z,10.9
2023-05-09T06:20:30.321Z,10.9
2023-05-09T06:21:31.489Z,10.9
2023-05-09T06:22:32.658Z,10.9
2023-05-09T06:23:33.822Z,11
2023-05-09T06:24:36.410Z,11
2023-05-09T06:25:37.922Z,11
2023-05-09T06:26:39.208Z,11.1
2023-05-09T06:27:40.419Z,11.1
2023-05-09T06:28:41.591Z,11.1
2023-05-09T06:29:42.771Z,11.2
2023-05-09T06:30:43.929Z,11.2
2023-05-09T06:31:45.111Z,11.2
2023-05-09T06:32:46.312Z,11.3
2023-05-09T06:33:47.666Z,11.3
2023-05-09T06:34:48.830Z,11.4
2023-05-09T06:35:49.999Z,11.4
2023-05-09T06:36:51.155Z,11.5
2023-05-09T06:37:52.335Z,11.5
2023-05-09T06:38:53.487Z,11.5
2023-05-09T06:39:54.664Z,11.6
2023-05-09T06:40:55.918Z,11.6
2023-05-09T06:41:57.196Z,11.7
2023-05-09T06:42:58.394Z,11.7
2023-05-09T06:43:59.553Z,11.8
2023-05-09T06:45:00.750Z,11.8
2023-05-09T06:46:01.933Z,11.9
2023-05-09T06:47:03.233Z,11.9
2023-05-09T06:48:04.407Z,12
2023-05-09T06:49:05.654Z,12
2023-05-09T06:50:06.840Z,12.1
2023-05-09T06:51:07.983Z,12.2
2023-05-09T06:52:09.148Z,12.2
2023-05-09T06:53:10.323Z,12.3
2023-05-09T06:54:11.486Z,12.4
2023-05-09T06:55:12.717Z,12.4
2023-05-09T06:56:14.689Z,12.5
2023-05-09T06:57:15.982Z,12.6
2023-05-09T06:58:17.196Z,12.6
2023-05-09T06:59:18.368Z,12.7
2023-05-09T07:00:19.555Z,12.8
2023-05-09T07:01:20.726Z,12.9
2023-05-09T07:02:21.901Z,13
2023-05-09T07:03:23.078Z,13
2023-05-09T07:04:24.254Z,13.1
2023-05-09T07:05:25.497Z,13.3
2023-05-09T07:06:27.250Z,13.4
2023-05-09T07:07:28.415Z,13.5
2023-05-09T07:08:29.590Z,13.6
2023-05-09T07:09:30.806Z,13.7
2023-05-09T07:10:31.978Z,13.9
2023-05-09T07:11:33.199Z,14
2023-05-09T07:12:34.486Z,14.2
2023-05-09T07:13:35.700Z,14.3
2023-05-09T07:14:36.862Z,14.5
2023-05-09T07:15:42.394Z,14.7
2023-05-09T07:16:44.782Z,14.8
2023-05-09T07:17:46.344Z,15
2023-05-09T07:18:47.529Z,15.2
2023-05-09T07:19:48.692Z,15.3
2023-05-09T07:20:49.875Z,15.5
2023-05-09T07:21:51.021Z,15.7
2023-05-09T07:22:52.213Z,15.8
2023-05-09T07:23:53.470Z,16
2023-05-09T07:24:54.632Z,16.2
2023-05-09T07:25:55.807Z,16.4
2023-05-09T07:26:57.061Z,16.6
2023-05-09T07:27:58.256Z,16.8
2023-05-09T07:28:59.665Z,17
2023-05-09T07:30:00.834Z,17.2
2023-05-09T07:31:02.018Z,17.3
2023-05-09T07:32:03.204Z,17.5
2023-05-09T07:33:04.409Z,17.7
2023-05-09T07:34:05.679Z,17.9
2023-05-09T07:35:06.858Z,18.1
2023-05-09T07:36:08.057Z,18.3
2023-05-09T07:37:09.218Z,18.5
2023-05-09T07:38:10.373Z,18.7
2023-05-09T07:39:11.541Z,18.9
2023-05-09T07:40:12.805Z,19
2023-05-09T07:41:15.124Z,19.2
2023-05-09T07:42:16.286Z,19.4
2023-05-09T07:43:17.628Z,19.6
2023-05-09T07:44:18.847Z,19.8
2023-05-09T07:45:22.059Z,20
2023-05-09T07:46:25.117Z,20.1
2023-05-09T07:47:26.734Z,20.3
2023-05-09T07:48:27.940Z,20.5
2023-05-09T07:49:29.112Z,20.7
2023-05-09T07:50:40.738Z,20.8
2023-05-09T07:51:41.900Z,21
2023-05-09T07:52:43.250Z,21.2
2023-05-09T07:53:44.460Z,21.3
2023-05-09T07:54:45.724Z,21.5
2023-05-09T07:55:46.885Z,21.6
2023-05-09T07:56:48.066Z,21.8
2023-05-09T07:57:49.308Z,21.9
2023-05-09T07:58:50.612Z,22.1
2023-05-09T07:59:55.478Z,22.3
2023-05-09T08:00:56.674Z,22.4
2023-05-09T08:01:57.885Z,22.5
2023-05-09T08:02:59.147Z,22.7
2023-05-09T08:04:00.912Z,22.8
2023-05-09T08:05:02.365Z,23
2023-05-09T08:06:03.544Z,23.1
2023-05-09T08:07:04.696Z,23.2
2023-05-09T08:08:05.881Z,23.4
2023-05-09T08:09:07.058Z,23.5
2023-05-09T08:10:08.236Z,23.7
2023-05-09T08:11:09.409Z,23.8
2023-05-09T08:12:10.557Z,23.9
2023-05-09T08:13:11.803Z,24.1
2023-05-09T08:14:15.023Z,24.2
2023-05-09T08:15:17.235Z,24.3
2023-05-09T08:16:19.023Z,24.4
2023-05-09T08:17:20.264Z,24.5
2023-05-09T08:18:21.482Z,24.6
2023-05-09T08:19:22.700Z,24.7
2023-05-09T08:20:23.870Z,24.8
2023-05-09T08:21:25.036Z,24.8
2023-05-09T08:22:26.196Z,24.9
2023-05-09T08:23:27.359Z,25
2023-05-09T08:24:28.529Z,25.1
2023-05-09T08:25:29.740Z,25.1
2023-05-09T08:26:31.038Z,25.2
2023-05-09T08:27:32.393Z,25.3
2023-05-09T08:28:33.632Z,25.3
2023-05-09T08:29:34.885Z,25.4
2023-05-09T08:30:36.056Z,25.5
2023-05-09T08:31:43.127Z,25.5
2023-05-09T08:32:44.423Z,25.6
2023-05-09T08:33:45.798Z,25.6
2023-05-09T08:34:47.016Z,25.7
2023-05-09T08:35:48.462Z,25.7
2023-05-09T08:36:52.581Z,25.8
2023-05-09T08:37:53.738Z,25.8
2023-05-09T08:38:54.908Z,25.8
2023-05-09T08:39:56.078Z,25.9
2023-05-09T08:40:57.275Z,25.9
2023-05-09T08:41:58.408Z,26
2023-05-09T08:42:59.570Z,26
2023-05-09T08:44:00.834Z,26.1
2023-05-09T08:45:02.125Z,26.2
2023-05-09T08:46:03.500Z,26.2
2023-05-09T08:47:04.813Z,26.3
2023-05-09T08:48:06.204Z,26.4
2023-05-09T08:49:07.529Z,26.4
2023-05-09T08:50:08.706Z,26.5
2023-05-09T08:51:09.893Z,26.5
2023-05-09T08:52:11.043Z,26.6
2023-05-09T08:53:12.213Z,26.7
2023-05-09T08:54:13.380Z,26.8
2023-05-09T08:55:14.544Z,26.8
2023-05-09T08:56:15.731Z,26.9
2023-05-09T08:57:16.878Z,26.9
2023-05-09T08:58:18.040Z,27
2023-05-09T08:59:19.320Z,27.1
2023-05-09T09:00:21.207Z,27.1
2023-05-09T09:01:24.014Z,27.2
2023-05-09T09:02:25.529Z,27.2
2023-05-09T09:03:26.709Z,27.3
2023-05-09T09:04:27.978Z,27.4
2023-05-09T09:07:49.903Z,27.5
2023-05-09T09:08:51.322Z,27.6
2023-05-09T09:09:52.446Z,27.7
2023-05-09T09:10:53.613Z,27.7
2023-05-09T09:12:15.790Z,27.8
2023-05-09T09:13:17.072Z,27.9
2023-05-09T09:14:21.858Z,28
2023-05-09T09:15:36.627Z,28
2023-05-09T09:16:38.153Z,28.1
2023-05-09T09:17:39.566Z,28.2
2023-05-09T09:18:40.727Z,28.2
2023-05-09T09:19:41.894Z,28.3
2023-05-09T09:20:43.063Z,28.3
2023-05-09T09:21:44.234Z,28.4
2023-05-09T09:22:45.400Z,28.4
2023-05-09T09:23:46.565Z,28.5
2023-05-09T09:24:47.737Z,28.5
2023-05-09T09:25:48.941Z,28.6
2023-05-09T09:26:50.101Z,28.6
2023-05-09T09:27:51.264Z,28.7
2023-05-09T09:28:52.431Z,28.7
2023-05-09T09:29:53.610Z,28.8
2023-05-09T09:30:54.992Z,28.9
2023-05-09T09:31:56.228Z,29
2023-05-09T09:32:57.440Z,29.1
2023-05-09T09:33:58.612Z,29.2
2023-05-09T09:34:59.779Z,29.2
2023-05-09T09:36:01.553Z,29.3
2023-05-09T09:37:02.693Z,29.4
2023-05-09T09:38:03.854Z,29.4
2023-05-09T09:39:05.017Z,29.5
2023-05-09T09:40:06.185Z,29.6
2023-05-09T09:41:07.385Z,29.7
2023-05-09T09:42:08.521Z,29.7
2023-05-09T09:43:09.695Z,29.8
2023-05-09T09:44:10.869Z,29.8
2023-05-09T09:45:12.046Z,29.9
2023-05-09T09:46:13.453Z,30
2023-05-09T09:47:15.087Z,30
2023-05-09T09:48:16.236Z,30.1
2023-05-09T09:49:17.398Z,30.1
2023-05-09T09:50:18.718Z,30.2
2023-05-09T09:51:20.221Z,30.3
2023-05-09T09:52:21.372Z,30.3
2023-05-09T09:53:22.537Z,30.4
2023-05-09T09:54:23.701Z,30.4
2023-05-09T09:55:24.870Z,30.5
2023-05-09T09:56:26.070Z,30.5
2023-05-09T09:57:27.206Z,30.6
2023-05-09T09:58:28.465Z,30.6
2023-05-09T09:59:30.162Z,30.7
2023-05-09T10:00:31.291Z,30.7
2023-05-09T10:01:32.725Z,30.8
2023-05-09T10:02:34.160Z,30.8
2023-05-09T10:03:35.351Z,30.8
2023-05-09T10:04:36.641Z,30.8
2023-05-09T10:05:37.790Z,30.9
2023-05-09T10:06:38.965Z,30.9
2023-05-09T10:07:40.119Z,31
2023-05-09T10:08:41.288Z,31.1
2023-05-09T10:09:42.450Z,31.1
2023-05-09T10:10:43.623Z,31.2
2023-05-09T10:11:44.818Z,31.2
2023-05-09T10:12:45.986Z,31.3
2023-05-09T10:13:47.162Z,31.3
2023-05-09T10:14:48.330Z,31.4
2023-05-09T10:15:53.361Z,31.4
2023-05-09T10:16:55.627Z,31.4
2023-05-09T10:17:57.542Z,31.5
2023-05-09T10:18:59.265Z,31.5
2023-05-09T10:20:00.506Z,31.6
2023-05-09T10:21:01.678Z,31.6
2023-05-09T10:22:02.871Z,31.7
2023-05-09T10:23:04.018Z,31.7
2023-05-09T10:24:05.181Z,31.8
2023-05-09T10:25:06.395Z,31.9
2023-05-09T10:26:07.545Z,31.9
2023-05-09T10:27:08.713Z,32
2023-05-09T10:28:09.901Z,32.1
2023-05-09T10:29:11.058Z,32.2
2023-05-09T10:30:12.237Z,32.3
2023-05-09T10:31:13.406Z,32.3
2023-05-09T10:32:14.920Z,32.3
2023-05-09T10:33:16.134Z,32.4
2023-05-09T10:34:17.308Z,32.5
2023-05-09T10:35:18.489Z,32.5
2023-05-09T10:36:19.634Z,32.6
2023-05-09T10:37:20.867Z,32.7
2023-05-09T10:38:21.993Z,32.7
2023-05-09T10:39:23.158Z,32.8
2023-05-09T10:40:24.327Z,32.8
2023-05-09T10:41:25.493Z,32.9
2023-05-09T10:42:26.688Z,32.9
2023-05-09T10:43:27.828Z,32.9
2023-05-09T10:44:28.992Z,32.9
2023-05-09T10:45:30.162Z,33
2023-05-09T10:46:31.374Z,33
2023-05-09T10:47:33.079Z,33
2023-05-09T10:48:34.577Z,33
2023-05-09T10:49:37.192Z,33.1
2023-05-09T10:50:38.596Z,33.1
2023-05-09T10:51:39.760Z,33.1
2023-05-09T10:52:41.027Z,33.1
2023-05-09T10:53:42.179Z,33.1
2023-05-09T10:54:43.337Z,33.2
2023-05-09T10:55:44.504Z,33.2
2023-05-09T10:56:45.670Z,33.2
2023-05-09T10:57:47.638Z,33.2
2023-05-09T10:58:48.772Z,33.3
2023-05-09T10:59:49.938Z,33.3
2023-05-09T11:00:51.102Z,33.3
2023-05-09T11:01:52.287Z,33.3
2023-05-09T11:02:53.856Z,33.3
2023-05-09T11:03:55.512Z,33.3
2023-05-09T11:04:56.699Z,33.4
2023-05-09T11:05:57.878Z,33.4
2023-05-09T11:06:59.030Z,33.4
2023-05-09T11:08:00.273Z,33.5
2023-05-09T11:09:04.419Z,33.5
2023-05-09T11:10:05.588Z,33.6
2023-05-09T11:11:06.782Z,33.7
2023-05-09T11:12:07.929Z,33.7
2023-05-09T11:13:09.115Z,33.7
2023-05-09T11:14:10.431Z,33.8
2023-05-09T11:15:11.623Z,33.8
2023-05-09T11:16:13.088Z,33.9
2023-05-09T11:17:14.308Z,33.9
2023-05-09T11:18:16.578Z,33.9
2023-05-09T11:19:19.979Z,34
2023-05-09T11:20:21.141Z,34
2023-05-09T11:21:22.324Z,34
2023-05-09T11:22:23.478Z,34
2023-05-09T11:23:24.672Z,34
2023-05-09T11:24:25.811Z,34
2023-05-09T11:25:26.976Z,34
2023-05-09T11:28:52.780Z,34.1
2023-05-09T11:29:58.872Z,34.2
2023-05-09T11:31:00.043Z,34.2
2023-05-09T11:32:01.225Z,34.3
2023-05-09T11:33:02.400Z,34.3
2023-05-09T11:34:04.101Z,34.3
2023-05-09T11:35:05.505Z,34.4
2023-05-09T11:36:06.696Z,34.4
2023-05-09T11:37:07.846Z,34.4
2023-05-09T11:38:09.021Z,34.4
2023-05-09T11:39:10.500Z,34.4
2023-05-09T11:40:11.638Z,34.4
2023-05-09T11:41:12.812Z,34.4
2023-05-09T11:42:13.982Z,34.5
2023-05-09T11:43:15.147Z,34.5
2023-05-09T11:44:16.378Z,34.5
2023-05-09T11:45:17.692Z,34.5
2023-05-09T11:46:19.348Z,34.4
2023-05-09T11:47:20.567Z,34.4
2023-05-09T11:48:21.802Z,34.4
2023-05-09T11:49:23.217Z,34.4
2023-05-09T11:50:24.460Z,34.5
2023-05-09T11:51:25.595Z,34.5
2023-05-09T11:52:26.801Z,34.6
2023-05-09T11:53:27.953Z,34.6
2023-05-09T11:54:29.134Z,34.6
2023-05-09T11:55:30.537Z,34.6
2023-05-09T11:56:31.785Z,34.6
2023-05-09T11:57:32.951Z,34.6
2023-05-09T11:58:34.157Z,34.7
2023-05-09T11:59:37.980Z,34.7
2023-05-09T12:00:39.193Z,34.6
2023-05-09T12:01:40.483Z,34.6
2023-05-09T12:02:41.780Z,34.6
2023-05-09T12:03:43.099Z,34.6
2023-05-09T12:04:44.895Z,34.6
2023-05-09T12:05:49.194Z,34.5
2023-05-09T12:06:55.891Z,34.5
2023-05-09T12:08:07.438Z,34.5
2023-05-09T12:09:33.345Z,34.4
2023-05-09T12:10:41.778Z,34.3
2023-05-09T12:13:25.632Z,34.2
2023-05-09T12:14:29.813Z,34.1
2023-05-09T12:15:33.213Z,34.1
2023-05-09T12:16:46.567Z,34.1
2023-05-09T12:17:50.529Z,34
2023-05-09T12:19:10.085Z,34
2023-05-09T12:20:25.989Z,33.9
2023-05-09T12:21:27.448Z,33.9
2023-05-09T12:22:31.718Z,33.9
2023-05-09T12:23:35.243Z,33.9
2023-05-09T12:24:39.462Z,33.9
2023-05-09T12:26:31.770Z,33.8
2023-05-09T12:27:35.813Z,33.8
2023-05-09T12:28:39.734Z,33.7
2023-05-09T12:29:43.561Z,33.7
2023-05-09T12:30:55.532Z,33.6
2023-05-09T12:32:06.944Z,33.6
2023-05-09T12:33:10.957Z,33.5
2023-05-09T12:34:14.964Z,33.4
2023-05-09T12:35:21.699Z,33.4
2023-05-09T12:36:35.526Z,33.3
2023-05-09T12:37:39.625Z,33.3
2023-05-09T12:38:43.939Z,33.3
2023-05-09T12:39:47.726Z,33.3
2023-05-09T12:40:48.961Z,33.4
2023-05-09T12:42:07.432Z,33.3
2023-05-09T12:43:15.785Z,33.3
2023-05-09T12:44:22.277Z,33.3
2023-05-09T12:45:44.531Z,33.3
2023-05-09T12:46:45.734Z,33.3
2023-05-09T12:47:58.196Z,33.3
2023-05-09T12:49:02.307Z,33.3
2023-05-09T12:50:09.057Z,33.4
2023-05-09T12:51:11.577Z,33.4
2023-05-09T12:52:18.270Z,33.3
2023-05-09T12:54:27.714Z,33.3
2023-05-09T12:55:31.830Z,33.3
2023-05-09T12:56:35.266Z,33.3
2023-05-09T12:57:39.532Z,33.2
2023-05-09T12:58:40.785Z,33.2
2023-05-09T12:59:44.819Z,33.1
2023-05-09T13:00:49.079Z,33.1
2023-05-09T13:01:52.829Z,33.1
2023-05-09T13:03:04.183Z,33
2023-05-09T13:04:08.807Z,32.9
2023-05-09T13:05:20.748Z,32.9
2023-05-09T13:06:21.954Z,32.8
2023-05-09T13:07:28.862Z,32.7
2023-05-09T13:08:30.022Z,32.7
2023-05-09T13:09:45.840Z,32.6
2023-05-09T13:11:04.383Z,32.5
2023-05-09T13:12:17.828Z,32.4
2023-05-09T13:13:26.221Z,32.3
2023-05-09T13:14:38.320Z,32.2
2023-05-09T13:15:39.605Z,32.1
2023-05-09T13:16:40.914Z,32
2023-05-09T13:17:42.132Z,31.9
2023-05-09T13:18:43.492Z,31.8
2023-05-09T13:19:47.498Z,31.7
2023-05-09T13:20:53.789Z,31.6
2023-05-09T13:21:57.026Z,31.5
2023-05-09T13:23:01.301Z,31.5
2023-05-09T13:24:02.537Z,31.4
2023-05-09T13:25:03.679Z,31.3
2023-05-09T13:26:04.891Z,31.3
2023-05-09T13:27:08.788Z,31.2
2023-05-09T13:28:17.093Z,31.1
2023-05-09T13:29:18.340Z,31.1
2023-05-09T13:30:19.818Z,31
2023-05-09T13:31:21.677Z,31
2023-05-09T13:32:23.190Z,30.9
2023-05-09T13:33:26.179Z,30.9
2023-05-09T13:34:28.033Z,30.8
2023-05-09T13:35:29.225Z,30.8
2023-05-09T13:36:33.542Z,30.7
2023-05-09T13:37:34.673Z,30.6
2023-05-09T13:38:36.017Z,30.6
2023-05-09T13:39:39.901Z,30.5
2023-05-09T13:40:43.237Z,30.5
2023-05-09T13:41:44.375Z,30.5
2023-05-09T13:42:48.582Z,30.4
2023-05-09T13:44:58.180Z,30.3
2023-05-09T13:46:02.293Z,30.3
2023-05-09T13:47:06.531Z,30.2
2023-05-09T13:48:07.748Z,30.2
2023-05-09T13:49:09.086Z,30.1
2023-05-09T13:50:13.292Z,30.1
2023-05-09T13:51:15.384Z,30
2023-05-09T13:52:19.315Z,29.9
2023-05-09T13:53:20.478Z,29.9
2023-05-09T13:54:21.971Z,29.8
2023-05-09T13:55:23.317Z,29.8
2023-05-09T13:56:24.487Z,29.7
2023-05-09T13:57:25.699Z,29.6
2023-05-09T13:58:26.690Z,29.5
2023-05-09T13:59:27.897Z,29.5
2023-05-09T14:00:29.059Z,29.4
2023-05-09T14:01:30.216Z,29.3
2023-05-09T14:02:32.521Z,29.2
2023-05-09T14:03:36.421Z,29.2
2023-05-09T14:04:37.638Z,29.1
2023-05-09T14:05:38.808Z,29.1
2023-05-09T14:06:40.017Z,29
2023-05-09T14:07:41.156Z,29
2023-05-09T14:08:42.331Z,28.9
2023-05-09T14:09:48.132Z,28.9
2023-05-09T14:11:16.973Z,28.8
2023-05-09T14:12:20.997Z,28.8